PDT,Max TemperatureF,Mean TemperatureF,Min TemperatureF,Max Dew PointF,MeanDew PointF,Min DewpointF,Max Humidity, Mean Humidity, Min Humidity, Max Sea Level PressureIn, Mean Sea Level PressureIn, Min Sea Level PressureIn, Max VisibilityMiles, Mean VisibilityMiles, Min VisibilityMiles, Max Wind SpeedMPH, Mean Wind SpeedMPH, Max Gust SpeedMPH,PrecipitationIn, CloudCover, Events, WindDirDegrees
2013-3-1,61,52,43,49,45,41,93,81,60,30.43,30.39,30.32,10,10,10,10,2,17,0.00,4,,291
2013-3-2,57,48,39,46,41,34,100,82,62,30.30,30.18,30.08,10,9,2,22,3,31,0.02,4,Rain,287
2013-3-3,52,44,34,33,27,25,73,53,36,30.27,30.23,30.17,10,10,10,23,12,32,0.00,0,,300
2013-3-4,54,39,24,28,22,18,85,58,24,30.32,30.19,30.04,10,10,10,17,4,,0.00,0,,82
2013-3-5,44,36,28,37,30,21,93,74,53,30.03,29.91,29.78,10,10,5,8,2,,0.04,7,Rain,319
2013-3-6,42,38,35,38,36,33,100,90,79,29.96,29.74,29.63,10,9,4,7,2,,0.40,7,Rain,319
2013-3-7,55,42,28,38,31,26,100,82,33,30.10,30.05,29.98,10,6,0,7,1,,0.00,1,Fog,256
2013-3-8,57,42,28,35,31,27,92,67,33,30.21,30.09,30.04,10,10,9,6,1,,0.00,0,,117
2013-3-9,64,46,28,35,28,21,89,57,19,30.45,30.36,30.22,10,10,10,22,6,29,0.00,0,,326
2013-3-10,57,47,37,41,35,26,77,62,44,30.46,30.40,30.34,10,10,10,22,7,30,0.00,4,,318
2013-3-11,57,52,46,45,42,41,90,73,60,30.40,30.32,30.23,10,10,10,14,6,,0.00,7,,320
2013-3-12,64,52,42,48,42,39,93,73,52,30.23,30.16,30.11,10,10,10,24,6,36,0.00,4,,309
2013-3-13,68,56,45,45,43,40,82,65,45,30.22,30.16,30.10,10,10,10,9,4,,0.00,1,,292
2013-3-14,66,56,45,47,43,37,90,70,37,30.17,30.08,30.02,10,10,10,21,5,31,0.00,2,,317
2013-3-15,64,54,43,46,43,39,89,68,46,30.22,30.17,30.12,10,10,10,17,8,25,0.00,1,,320
2013-3-16,57,48,39,43,39,33,93,72,47,30.12,30.02,29.91,10,10,10,26,12,33,0.12,4,Rain,290
2013-3-17,48,42,37,32,30,28,79,63,51,30.22,30.17,30.04,10,10,10,16,10,29,0.00,6,,304
2013-3-18,55,46,37,35,31,30,79,61,40,30.23,30.20,30.16,10,10,10,28,10,34,0.00,4,,306
2013-3-19,48,39,30,39,31,26,93,72,52,30.23,30.09,29.81,10,10,5,12,2,,0.10,5,Rain,325
2013-3-20,57,46,37,41,37,32,100,81,42,30.07,29.75,29.59,10,7,0,30,6,43,0.23,6,Fog-Rain,272
2013-3-21,48,40,35,34,31,27,79,69,52,30.22,30.17,30.08,10,10,10,28,9,32,0.00,5,Rain,289
2013-3-22,50,40,32,30,27,24,79,58,38,30.37,30.28,30.22,10,10,10,24,14,32,0.00,1,,286
2013-3-23,51,42,30,31,25,19,82,62,28,30.40,30.35,30.28,10,10,10,9,4,,0.00,0,,106
2013-3-24,53,39,26,30,25,22,84,59,31,30.36,30.27,30.17,10,10,10,6,2,,0.00,4,,98
2013-3-25,61,44,30,34,29,25,82,56,31,30.17,30.08,29.96,10,10,10,8,4,,0.00,3,,97
2013-3-26,57,48,39,40,35,30,77,63,36,30.04,29.99,29.95,10,10,10,12,2,,0.00,5,,359
2013-3-27,64,52,41,47,42,38,93,72,40,30.00,29.95,29.90,10,10,10,13,3,,0.00,6,Rain,311
2013-3-28,64,55,46,47,44,41,93,73,43,30.11,30.05,30.01,10,10,5,10,2,,0.00,5,,310
2013-3-29,71,60,50,46,44,41,86,62,35,30.21,30.16,30.12,10,10,10,14,6,,0.00,3,Rain,318
2013-3-30,75,57,39,47,42,37,93,64,29,30.27,30.16,30.05,10,10,10,13,2,,0.00,0,,89
2013-3-31,75,56,37,43,39,35,89,59,26,30.08,30.00,29.88,10,10,10,8,2,,0.00,0,,110